Mossbank, Canada
Current Conditions -  °F | °C
As of 4:00 AM on Monday 26 Jan 2015 (Local Time) from CYQR Reporting Station
Broken Clouds Broken Clouds  
Wind Chill: -2°   Ceiling: 9400
Heat Index:   Visibility: 15mi
Dew Point: -1°   Wind: 16mph
Humidity: 75%   Direction: 290°WNW
Pressure: 29.86"   Gusts: NA
Location:  49.93°N, 105.97°W
Report Text: CYQR 261000Z 29014KT 15SM BKN094 03/M01 A2986 RMK AC7 SLP135
Loading
Personal Weather Stations






























Interactive Weather Map New forecast layout! Learn more

10-Day Weather Forecast

Advertisements
Track Severe Weather on mobile